sensor_id;sensor_type;location;lat;lon;timestamp;pressure;altitude;pressure_sealevel;temperature;humidity
596;BME280;19946;49.306;11.350;2022-12-26T00:01:57;96333.63;;;5.94;100.00
596;BME280;19946;49.306;11.350;2022-12-26T00:05:00;96330.94;;;5.96;100.00
596;BME280;19946;49.306;11.350;2022-12-26T00:08:05;96325.19;;;6.05;100.00
596;BME280;19946;49.306;11.350;2022-12-26T00:11:15;96306.19;;;5.95;100.00
596;BME280;19946;49.306;11.350;2022-12-26T00:15:02;96339.88;;;6.15;100.00
596;BME280;19946;49.306;11.350;2022-12-26T00:18:23;96340.28;;;6.22;100.00
596;BME280;19946;49.306;11.350;2022-12-26T00:22:23;96351.75;;;6.29;100.00
596;BME280;19946;49.306;11.350;2022-12-26T00:25:36;96349.53;;;6.61;100.00
596;BME280;19946;49.306;11.350;2022-12-26T00:28:42;96344.88;;;6.66;100.00
596;BME280;19946;49.306;11.350;2022-12-26T00:31:47;96345.31;;;6.60;100.00
596;BME280;19946;49.306;11.350;2022-12-26T00:34:56;96353.88;;;6.84;100.00
596;BME280;19946;49.306;11.350;2022-12-26T00:38:24;96356.34;;;6.86;100.00
596;BME280;19946;49.306;11.350;2022-12-26T00:41:33;96347.91;;;6.84;100.00
596;BME280;19946;49.306;11.350;2022-12-26T00:45:02;96274.47;;;6.43;100.00
596;BME280;19946;49.306;11.350;2022-12-26T00:48:07;96318.19;;;6.80;100.00
596;BME280;19946;49.306;11.350;2022-12-26T00:51:11;96249.63;;;6.31;100.00
596;BME280;19946;49.306;11.350;2022-12-26T00:54:13;96258.88;;;6.57;100.00
596;BME280;19946;49.306;11.350;2022-12-26T00:57:14;96344.50;;;7.07;100.00
596;BME280;19946;49.306;11.350;2022-12-26T01:00:15;96218.00;;;6.18;100.00
596;BME280;19946;49.306;11.350;2022-12-26T01:03:17;96310.66;;;6.77;100.00
596;BME280;19946;49.306;11.350;2022-12-26T01:06:20;96264.81;;;6.47;100.00
596;BME280;19946;49.306;11.350;2022-12-26T01:09:22;96233.06;;;6.35;100.00
596;BME280;19946;49.306;11.350;2022-12-26T01:12:23;96245.09;;;6.35;100.00
596;BME280;19946;49.306;11.350;2022-12-26T01:15:30;96221.75;;;6.38;100.00
596;BME280;19946;49.306;11.350;2022-12-26T01:18:34;96241.91;;;6.31;100.00
596;BME280;19946;49.306;11.350;2022-12-26T01:21:35;96375.06;;;7.12;100.00
596;BME280;19946;49.306;11.350;2022-12-26T01:24:38;96232.56;;;6.30;100.00
596;BME280;19946;49.306;11.350;2022-12-26T01:27:39;96317.94;;;6.83;100.00
596;BME280;19946;49.306;11.350;2022-12-26T01:30:42;96335.06;;;6.95;100.00
596;BME280;19946;49.306;11.350;2022-12-26T01:33:46;96346.19;;;6.95;100.00
596;BME280;19946;49.306;11.350;2022-12-26T01:36:50;96234.22;;;6.18;100.00
596;BME280;19946;49.306;11.350;2022-12-26T01:39:51;96277.19;;;6.29;100.00
596;BME280;19946;49.306;11.350;2022-12-26T01:42:53;96334.44;;;6.56;100.00
596;BME280;19946;49.306;11.350;2022-12-26T01:45:55;96325.88;;;6.56;100.00
596;BME280;19946;49.306;11.350;2022-12-26T01:48:59;96237.72;;;5.94;100.00
596;BME280;19946;49.306;11.350;2022-12-26T01:52:11;96249.84;;;5.92;100.00
596;BME280;19946;49.306;11.350;2022-12-26T01:55:19;96220.38;;;5.59;100.00
596;BME280;19946;49.306;11.350;2022-12-26T01:58:34;96274.91;;;6.01;100.00
596;BME280;19946;49.306;11.350;2022-12-26T02:01:57;96214.31;;;5.73;100.00
596;BME280;19946;49.306;11.350;2022-12-26T02:13:12;96349.22;;;7.13;100.00
596;BME280;19946;49.306;11.350;2022-12-26T02:16:16;96246.19;;;6.43;100.00
596;BME280;19946;49.306;11.350;2022-12-26T02:23:04;96344.53;;;7.18;100.00
596;BME280;19946;49.306;11.350;2022-12-26T02:27:01;96339.13;;;7.10;100.00
596;BME280;19946;49.306;11.350;2022-12-26T02:30:31;96332.03;;;6.90;100.00
596;BME280;19946;49.306;11.350;2022-12-26T02:40:44;96328.38;;;6.81;100.00
596;BME280;19946;49.306;11.350;2022-12-26T02:47:22;96344.00;;;7.37;100.00
596;BME280;19946;49.306;11.350;2022-12-26T02:54:50;96344.47;;;7.31;100.00
596;BME280;19946;49.306;11.350;2022-12-26T02:58:47;96288.56;;;7.09;100.00
596;BME280;19946;49.306;11.350;2022-12-26T03:02:42;96316.88;;;7.09;100.00
596;BME280;19946;49.306;11.350;2022-12-26T03:10:05;96204.81;;;6.70;100.00
596;BME280;19946;49.306;11.350;2022-12-26T03:13:37;96336.34;;;7.59;100.00
596;BME280;19946;49.306;11.350;2022-12-26T03:16:42;96237.19;;;7.08;100.00
596;BME280;19946;49.306;11.350;2022-12-26T03:20:11;96186.53;;;6.73;100.00
596;BME280;19946;49.306;11.350;2022-12-26T03:23:15;96202.84;;;6.85;100.00
596;BME280;19946;49.306;11.350;2022-12-26T03:26:21;96277.88;;;7.49;100.00
596;BME280;19946;49.306;11.350;2022-12-26T03:29:42;96279.19;;;7.54;100.00
596;BME280;19946;49.306;11.350;2022-12-26T03:33:10;96216.44;;;6.98;100.00
596;BME280;19946;49.306;11.350;2022-12-26T03:40:39;96342.81;;;7.76;100.00
596;BME280;19946;49.306;11.350;2022-12-26T03:44:20;96309.63;;;7.60;100.00
596;BME280;19946;49.306;11.350;2022-12-26T03:47:54;96238.63;;;7.23;100.00
596;BME280;19946;49.306;11.350;2022-12-26T03:51:23;96267.00;;;7.45;100.00
596;BME280;19946;49.306;11.350;2022-12-26T03:55:05;96277.44;;;7.55;100.00
596;BME280;19946;49.306;11.350;2022-12-26T03:58:37;96267.69;;;7.58;100.00
596;BME280;19946;49.306;11.350;2022-12-26T04:02:03;96221.56;;;7.55;100.00
596;BME280;19946;49.306;11.350;2022-12-26T04:05:27;96365.94;;;8.45;100.00
596;BME280;19946;49.306;11.350;2022-12-26T04:08:58;96320.22;;;8.35;100.00
596;BME280;19946;49.306;11.350;2022-12-26T04:12:23;96223.78;;;7.71;100.00
596;BME280;19946;49.306;11.350;2022-12-26T04:15:57;96358.09;;;8.46;100.00
596;BME280;19946;49.306;11.350;2022-12-26T04:22:51;96361.59;;;8.67;100.00
596;BME280;19946;49.306;11.350;2022-12-26T04:26:33;96348.66;;;8.78;100.00
596;BME280;19946;49.306;11.350;2022-12-26T04:29:55;96253.97;;;8.36;100.00
596;BME280;19946;49.306;11.350;2022-12-26T04:33:23;96252.31;;;8.35;100.00
596;BME280;19946;49.306;11.350;2022-12-26T04:40:20;96368.78;;;9.07;100.00
596;BME280;19946;49.306;11.350;2022-12-26T04:43:43;96356.41;;;9.10;100.00
596;BME280;19946;49.306;11.350;2022-12-26T04:47:09;96350.00;;;9.05;100.00
596;BME280;19946;49.306;11.350;2022-12-26T04:50:10;96281.47;;;8.58;100.00
596;BME280;19946;49.306;11.350;2022-12-26T04:53:14;96216.47;;;8.21;100.00
596;BME280;19946;49.306;11.350;2022-12-26T04:56:16;96340.38;;;9.07;100.00
596;BME280;19946;49.306;11.350;2022-12-26T04:59:19;96264.06;;;8.39;100.00
596;BME280;19946;49.306;11.350;2022-12-26T05:02:24;96356.50;;;8.77;100.00
596;BME280;19946;49.306;11.350;2022-12-26T05:05:46;96278.50;;;8.08;100.00
596;BME280;19946;49.306;11.350;2022-12-26T05:09:09;96278.38;;;7.98;100.00
596;BME280;19946;49.306;11.350;2022-12-26T05:12:29;96359.84;;;8.57;100.00
596;BME280;19946;49.306;11.350;2022-12-26T05:15:30;96354.34;;;8.39;100.00
596;BME280;19946;49.306;11.350;2022-12-26T05:18:51;96239.50;;;7.57;100.00
596;BME280;19946;49.306;11.350;2022-12-26T05:22:10;96368.41;;;8.57;100.00
596;BME280;19946;49.306;11.350;2022-12-26T05:25:34;96252.72;;;7.75;100.00
596;BME280;19946;49.306;11.350;2022-12-26T05:28:58;96377.69;;;8.60;100.00
596;BME280;19946;49.306;11.350;2022-12-26T05:31:59;96382.84;;;8.60;100.00
596;BME280;19946;49.306;11.350;2022-12-26T05:35:02;96385.75;;;8.55;100.00
596;BME280;19946;49.306;11.350;2022-12-26T05:38:05;96340.13;;;8.22;100.00
596;BME280;19946;49.306;11.350;2022-12-26T05:41:07;96301.69;;;7.97;100.00
596;BME280;19946;49.306;11.350;2022-12-26T05:44:11;96345.19;;;8.24;100.00
596;BME280;19946;49.306;11.350;2022-12-26T05:47:12;96261.72;;;7.58;100.00
596;BME280;19946;49.306;11.350;2022-12-26T05:50:14;96282.00;;;7.74;100.00
596;BME280;19946;49.306;11.350;2022-12-26T05:53:18;96318.44;;;8.02;100.00
596;BME280;19946;49.306;11.350;2022-12-26T05:56:19;96358.09;;;8.35;100.00
596;BME280;19946;49.306;11.350;2022-12-26T05:59:20;96286.69;;;7.91;100.00
596;BME280;19946;49.306;11.350;2022-12-26T06:02:22;96363.16;;;8.36;100.00
596;BME280;19946;49.306;11.350;2022-12-26T06:05:23;96250.59;;;7.68;100.00
596;BME280;19946;49.306;11.350;2022-12-26T06:08:24;96356.81;;;8.52;100.00
596;BME280;19946;49.306;11.350;2022-12-26T06:11:26;96239.72;;;7.98;100.00
596;BME280;19946;49.306;11.350;2022-12-26T06:14:27;96271.69;;;8.07;100.00
596;BME280;19946;49.306;11.350;2022-12-26T06:17:28;96358.91;;;8.58;100.00
596;BME280;19946;49.306;11.350;2022-12-26T06:20:30;96319.50;;;8.33;100.00
596;BME280;19946;49.306;11.350;2022-12-26T06:23:34;96347.75;;;8.57;100.00
596;BME280;19946;49.306;11.350;2022-12-26T06:26:38;96260.88;;;8.13;100.00
596;BME280;19946;49.306;11.350;2022-12-26T06:29:59;96185.13;;;7.71;100.00
596;BME280;19946;49.306;11.350;2022-12-26T06:33:00;96224.78;;;8.02;100.00
596;BME280;19946;49.306;11.350;2022-12-26T06:39:05;96204.34;;;7.89;100.00
596;BME280;19946;49.306;11.350;2022-12-26T06:42:06;96203.31;;;8.13;100.00
596;BME280;19946;49.306;11.350;2022-12-26T06:45:08;96320.13;;;8.80;100.00
596;BME280;19946;49.306;11.350;2022-12-26T06:48:09;96254.19;;;8.33;100.00
596;BME280;19946;49.306;11.350;2022-12-26T06:51:13;96343.50;;;8.67;100.00
596;BME280;19946;49.306;11.350;2022-12-26T06:54:19;96208.06;;;7.85;100.00
596;BME280;19946;49.306;11.350;2022-12-26T06:57:21;96333.69;;;8.61;100.00
596;BME280;19946;49.306;11.350;2022-12-26T07:00:24;96226.56;;;7.79;100.00
596;BME280;19946;49.306;11.350;2022-12-26T07:03:27;96351.06;;;8.48;100.00
596;BME280;19946;49.306;11.350;2022-12-26T07:06:34;96235.28;;;7.67;100.00
596;BME280;19946;49.306;11.350;2022-12-26T07:09:35;96279.09;;;7.89;100.00
596;BME280;19946;49.306;11.350;2022-12-26T07:12:36;96193.94;;;7.35;100.00
596;BME280;19946;49.306;11.350;2022-12-26T07:15:38;96341.91;;;8.11;100.00
596;BME280;19946;49.306;11.350;2022-12-26T07:18:38;96259.16;;;7.58;100.00
596;BME280;19946;49.306;11.350;2022-12-26T07:21:39;96263.97;;;7.62;100.00
596;BME280;19946;49.306;11.350;2022-12-26T07:24:40;96333.22;;;8.00;100.00
596;BME280;19946;49.306;11.350;2022-12-26T07:27:41;96330.19;;;7.95;100.00
596;BME280;19946;49.306;11.350;2022-12-26T07:30:46;96343.78;;;8.09;100.00
596;BME280;19946;49.306;11.350;2022-12-26T07:33:49;96313.88;;;7.95;100.00
596;BME280;19946;49.306;11.350;2022-12-26T07:36:49;96355.38;;;8.14;100.00
596;BME280;19946;49.306;11.350;2022-12-26T07:39:50;96360.66;;;8.13;100.00
596;BME280;19946;49.306;11.350;2022-12-26T07:42:52;96355.63;;;8.11;100.00
596;BME280;19946;49.306;11.350;2022-12-26T07:45:56;96377.78;;;8.14;100.00
596;BME280;19946;49.306;11.350;2022-12-26T07:48:57;96378.59;;;8.14;100.00
596;BME280;19946;49.306;11.350;2022-12-26T07:51:57;96315.19;;;7.78;100.00
596;BME280;19946;49.306;11.350;2022-12-26T07:54:58;96359.16;;;8.10;100.00
596;BME280;19946;49.306;11.350;2022-12-26T07:57:58;96357.50;;;8.20;100.00
596;BME280;19946;49.306;11.350;2022-12-26T08:01:03;96368.69;;;8.32;100.00
596;BME280;19946;49.306;11.350;2022-12-26T08:04:03;96385.53;;;8.36;100.00
596;BME280;19946;49.306;11.350;2022-12-26T08:07:04;96350.44;;;8.22;100.00
596;BME280;19946;49.306;11.350;2022-12-26T08:10:06;96301.94;;;8.05;100.00
596;BME280;19946;49.306;11.350;2022-12-26T08:13:07;96343.69;;;8.32;100.00
596;BME280;19946;49.306;11.350;2022-12-26T08:16:09;96396.34;;;8.52;100.00
596;BME280;19946;49.306;11.350;2022-12-26T08:19:11;96375.44;;;8.55;100.00
596;BME280;19946;49.306;11.350;2022-12-26T08:22:11;96378.03;;;8.55;100.00
596;BME280;19946;49.306;11.350;2022-12-26T08:25:12;96391.06;;;8.54;100.00
596;BME280;19946;49.306;11.350;2022-12-26T08:28:12;96383.91;;;8.46;100.00
596;BME280;19946;49.306;11.350;2022-12-26T08:31:13;96390.25;;;8.53;100.00
596;BME280;19946;49.306;11.350;2022-12-26T08:34:14;96334.03;;;8.12;100.00
596;BME280;19946;49.306;11.350;2022-12-26T08:37:14;96399.63;;;8.54;100.00
596;BME280;19946;49.306;11.350;2022-12-26T08:40:15;96378.50;;;8.60;100.00
596;BME280;19946;49.306;11.350;2022-12-26T08:43:15;96383.88;;;8.57;100.00
596;BME280;19946;49.306;11.350;2022-12-26T08:46:17;96353.41;;;8.40;100.00
596;BME280;19946;49.306;11.350;2022-12-26T08:49:18;96386.56;;;8.67;100.00
596;BME280;19946;49.306;11.350;2022-12-26T08:52:18;96397.72;;;8.56;100.00
596;BME280;19946;49.306;11.350;2022-12-26T08:55:19;96379.66;;;8.56;100.00
596;BME280;19946;49.306;11.350;2022-12-26T08:58:19;96389.66;;;8.50;100.00
596;BME280;19946;49.306;11.350;2022-12-26T09:01:25;96368.41;;;8.24;100.00
596;BME280;19946;49.306;11.350;2022-12-26T09:04:26;96396.91;;;8.45;100.00
596;BME280;19946;49.306;11.350;2022-12-26T09:07:26;96407.59;;;8.40;100.00
596;BME280;19946;49.306;11.350;2022-12-26T09:10:26;96394.66;;;8.29;100.00
596;BME280;19946;49.306;11.350;2022-12-26T09:13:27;96405.69;;;8.31;100.00
596;BME280;19946;49.306;11.350;2022-12-26T09:16:33;96378.81;;;8.22;100.00
596;BME280;19946;49.306;11.350;2022-12-26T09:19:35;96382.63;;;8.52;100.00
596;BME280;19946;49.306;11.350;2022-12-26T09:22:35;96385.53;;;8.47;100.00
596;BME280;19946;49.306;11.350;2022-12-26T09:25:52;96404.06;;;8.74;100.00
596;BME280;19946;49.306;11.350;2022-12-26T09:28:52;96415.06;;;8.76;100.00
596;BME280;19946;49.306;11.350;2022-12-26T09:31:54;96377.56;;;8.61;100.00
596;BME280;19946;49.306;11.350;2022-12-26T09:34:57;96419.28;;;8.77;100.00
596;BME280;19946;49.306;11.350;2022-12-26T09:37:58;96402.88;;;8.67;100.00
596;BME280;19946;49.306;11.350;2022-12-26T09:48:12;96355.75;;;8.10;100.00
596;BME280;19946;49.306;11.350;2022-12-26T09:51:15;96410.53;;;8.47;100.00
596;BME280;19946;49.306;11.350;2022-12-26T09:54:24;96406.41;;;8.44;100.00
596;BME280;19946;49.306;11.350;2022-12-26T09:57:37;96362.66;;;8.20;100.00
596;BME280;19946;49.306;11.350;2022-12-26T10:00:48;96353.41;;;8.06;100.00
596;BME280;19946;49.306;11.350;2022-12-26T10:03:55;96410.38;;;8.26;100.00
596;BME280;19946;49.306;11.350;2022-12-26T10:10:46;96399.34;;;8.13;100.00
596;BME280;19946;49.306;11.350;2022-12-26T10:13:56;96387.16;;;8.15;100.00
596;BME280;19946;49.306;11.350;2022-12-26T10:24:03;96417.88;;;8.29;100.00
596;BME280;19946;49.306;11.350;2022-12-26T10:27:15;96378.47;;;7.93;100.00
596;BME280;19946;49.306;11.350;2022-12-26T10:30:36;96363.78;;;7.72;100.00
596;BME280;19946;49.306;11.350;2022-12-26T10:33:48;96419.94;;;8.01;100.00
596;BME280;19946;49.306;11.350;2022-12-26T10:36:54;96427.97;;;8.10;100.00
596;BME280;19946;49.306;11.350;2022-12-26T10:40:06;96410.59;;;7.89;100.00
596;BME280;19946;49.306;11.350;2022-12-26T10:43:29;96448.44;;;7.89;100.00
596;BME280;19946;49.306;11.350;2022-12-26T10:49:51;96448.47;;;7.65;100.00
596;BME280;19946;49.306;11.350;2022-12-26T10:52:53;96413.97;;;7.44;100.00
596;BME280;19946;49.306;11.350;2022-12-26T10:55:54;96357.09;;;6.99;100.00
596;BME280;19946;49.306;11.350;2022-12-26T10:59:01;96409.22;;;7.38;100.00
596;BME280;19946;49.306;11.350;2022-12-26T11:02:32;96449.47;;;7.51;100.00
596;BME280;19946;49.306;11.350;2022-12-26T11:05:34;96471.41;;;7.57;100.00
596;BME280;19946;49.306;11.350;2022-12-26T11:08:46;96446.78;;;7.29;100.00
596;BME280;19946;49.306;11.350;2022-12-26T11:11:48;96475.78;;;7.44;100.00
596;BME280;19946;49.306;11.350;2022-12-26T11:14:57;96484.88;;;7.37;100.00
596;BME280;19946;49.306;11.350;2022-12-26T11:18:21;96479.84;;;7.35;100.00
596;BME280;19946;49.306;11.350;2022-12-26T11:21:25;96461.25;;;7.19;100.00
596;BME280;19946;49.306;11.350;2022-12-26T11:24:25;96474.41;;;7.27;100.00
596;BME280;19946;49.306;11.350;2022-12-26T11:27:27;96493.03;;;7.30;100.00
596;BME280;19946;49.306;11.350;2022-12-26T11:30:29;96503.03;;;7.35;100.00
596;BME280;19946;49.306;11.350;2022-12-26T11:33:40;96485.88;;;7.23;100.00
596;BME280;19946;49.306;11.350;2022-12-26T11:36:48;96494.19;;;7.26;100.00
596;BME280;19946;49.306;11.350;2022-12-26T11:39:50;96430.31;;;6.95;100.00
596;BME280;19946;49.306;11.350;2022-12-26T11:42:54;96435.28;;;6.98;100.00
596;BME280;19946;49.306;11.350;2022-12-26T11:45:55;96431.06;;;6.97;100.00
596;BME280;19946;49.306;11.350;2022-12-26T11:48:56;96436.81;;;7.01;100.00
596;BME280;19946;49.306;11.350;2022-12-26T11:51:58;96459.13;;;7.13;100.00
596;BME280;19946;49.306;11.350;2022-12-26T11:54:59;96404.94;;;6.90;100.00
596;BME280;19946;49.306;11.350;2022-12-26T12:01:18;96381.69;;;6.79;100.00
596;BME280;19946;49.306;11.350;2022-12-26T12:04:19;96441.31;;;7.10;100.00
596;BME280;19946;49.306;11.350;2022-12-26T12:10:50;96454.81;;;7.13;100.00
596;BME280;19946;49.306;11.350;2022-12-26T12:14:30;96455.28;;;7.18;100.00
596;BME280;19946;49.306;11.350;2022-12-26T12:21:06;96470.31;;;7.24;100.00
596;BME280;19946;49.306;11.350;2022-12-26T12:24:48;96382.00;;;6.75;100.00
596;BME280;19946;49.306;11.350;2022-12-26T12:28:03;96431.44;;;7.04;100.00
596;BME280;19946;49.306;11.350;2022-12-26T12:31:15;96453.91;;;7.25;100.00
596;BME280;19946;49.306;11.350;2022-12-26T12:44:44;96417.53;;;7.30;100.00
596;BME280;19946;49.306;11.350;2022-12-26T12:51:36;96453.78;;;7.27;100.00
596;BME280;19946;49.306;11.350;2022-12-26T13:01:31;96446.84;;;7.16;100.00
596;BME280;19946;49.306;11.350;2022-12-26T13:04:37;96476.03;;;7.28;100.00
596;BME280;19946;49.306;11.350;2022-12-26T13:07:43;96401.63;;;6.88;100.00
596;BME280;19946;49.306;11.350;2022-12-26T13:11:04;96391.75;;;6.82;100.00
596;BME280;19946;49.306;11.350;2022-12-26T13:14:19;96455.44;;;7.28;100.00
596;BME280;19946;49.306;11.350;2022-12-26T13:20:40;96441.56;;;7.18;100.00
596;BME280;19946;49.306;11.350;2022-12-26T13:24:38;96463.28;;;7.26;100.00
596;BME280;19946;49.306;11.350;2022-12-26T13:27:30;96441.16;;;7.24;100.00
596;BME280;19946;49.306;11.350;2022-12-26T13:30:33;96424.31;;;7.07;100.00
596;BME280;19946;49.306;11.350;2022-12-26T13:33:33;96397.78;;;6.94;100.00
596;BME280;19946;49.306;11.350;2022-12-26T13:39:41;96442.50;;;7.17;100.00
596;BME280;19946;49.306;11.350;2022-12-26T13:42:55;96440.66;;;7.19;100.00
596;BME280;19946;49.306;11.350;2022-12-26T13:46:35;96473.97;;;7.33;100.00
596;BME280;19946;49.306;11.350;2022-12-26T13:49:38;96419.38;;;7.04;100.00
596;BME280;19946;49.306;11.350;2022-12-26T13:52:39;96433.69;;;7.08;100.00
596;BME280;19946;49.306;11.350;2022-12-26T13:55:42;96458.69;;;7.19;100.00
596;BME280;19946;49.306;11.350;2022-12-26T13:58:57;96443.31;;;7.17;100.00
596;BME280;19946;49.306;11.350;2022-12-26T14:05:40;96412.53;;;6.92;100.00
596;BME280;19946;49.306;11.350;2022-12-26T14:09:06;96477.38;;;7.33;100.00
596;BME280;19946;49.306;11.350;2022-12-26T14:15:29;96447.28;;;7.10;100.00
596;BME280;19946;49.306;11.350;2022-12-26T14:18:55;96483.78;;;7.28;100.00
596;BME280;19946;49.306;11.350;2022-12-26T14:22:23;96421.81;;;6.82;100.00
596;BME280;19946;49.306;11.350;2022-12-26T14:25:36;96445.84;;;7.06;100.00
596;BME280;19946;49.306;11.350;2022-12-26T14:28:59;96480.38;;;7.27;100.00
596;BME280;19946;49.306;11.350;2022-12-26T14:35:52;96430.06;;;6.87;100.00
596;BME280;19946;49.306;11.350;2022-12-26T14:52:36;96443.47;;;7.03;100.00
596;BME280;19946;49.306;11.350;2022-12-26T14:56:00;96444.59;;;7.12;100.00
596;BME280;19946;49.306;11.350;2022-12-26T14:59:28;96437.59;;;7.14;100.00
596;BME280;19946;49.306;11.350;2022-12-26T15:02:30;96428.25;;;7.00;100.00
596;BME280;19946;49.306;11.350;2022-12-26T15:05:36;96454.34;;;7.19;100.00
596;BME280;19946;49.306;11.350;2022-12-26T15:15:21;96470.84;;;7.17;100.00
596;BME280;19946;49.306;11.350;2022-12-26T15:18:42;96466.41;;;7.19;100.00
596;BME280;19946;49.306;11.350;2022-12-26T15:25:31;96424.97;;;6.98;100.00
596;BME280;19946;49.306;11.350;2022-12-26T15:31:45;96468.16;;;7.18;100.00
596;BME280;19946;49.306;11.350;2022-12-26T15:41:38;96440.41;;;6.98;100.00
596;BME280;19946;49.306;11.350;2022-12-26T15:48:43;96459.00;;;7.14;100.00
596;BME280;19946;49.306;11.350;2022-12-26T15:55:45;96443.72;;;7.00;100.00
596;BME280;19946;49.306;11.350;2022-12-26T16:06:38;96467.38;;;7.05;100.00
596;BME280;19946;49.306;11.350;2022-12-26T16:09:51;96370.28;;;6.34;100.00
596;BME280;19946;49.306;11.350;2022-12-26T16:16:34;96407.28;;;6.57;100.00
596;BME280;19946;49.306;11.350;2022-12-26T16:19:42;96402.13;;;6.57;100.00
596;BME280;19946;49.306;11.350;2022-12-26T16:22:47;96494.28;;;7.01;100.00
596;BME280;19946;49.306;11.350;2022-12-26T16:26:14;96447.88;;;6.77;100.00
596;BME280;19946;49.306;11.350;2022-12-26T16:32:35;96473.88;;;6.98;100.00
596;BME280;19946;49.306;11.350;2022-12-26T16:35:46;96400.06;;;6.49;100.00
596;BME280;19946;49.306;11.350;2022-12-26T16:42:30;96392.50;;;6.48;100.00
596;BME280;19946;49.306;11.350;2022-12-26T16:45:36;96474.09;;;6.95;100.00
596;BME280;19946;49.306;11.350;2022-12-26T16:53:48;96375.34;;;6.23;100.00
596;BME280;19946;49.306;11.350;2022-12-26T16:57:17;96379.66;;;6.35;100.00
596;BME280;19946;49.306;11.350;2022-12-26T17:00:25;96456.09;;;6.82;100.00
596;BME280;19946;49.306;11.350;2022-12-26T17:07:13;96465.13;;;7.01;100.00
596;BME280;19946;49.306;11.350;2022-12-26T17:10:22;96459.16;;;7.00;100.00
596;BME280;19946;49.306;11.350;2022-12-26T17:13:25;96337.06;;;6.31;100.00
596;BME280;19946;49.306;11.350;2022-12-26T17:23:31;96448.03;;;7.00;100.00
596;BME280;19946;49.306;11.350;2022-12-26T17:47:01;96443.44;;;6.92;100.00
596;BME280;19946;49.306;11.350;2022-12-26T17:50:10;96435.41;;;6.84;100.00
596;BME280;19946;49.306;11.350;2022-12-26T17:56:45;96450.81;;;6.96;100.00
596;BME280;19946;49.306;11.350;2022-12-26T17:59:49;96453.09;;;7.01;100.00
596;BME280;19946;49.306;11.350;2022-12-26T18:09:47;96465.72;;;7.04;100.00
596;BME280;19946;49.306;11.350;2022-12-26T18:12:55;96361.09;;;6.43;100.00
596;BME280;19946;49.306;11.350;2022-12-26T18:19:47;96343.13;;;6.30;100.00
596;BME280;19946;49.306;11.350;2022-12-26T18:22:52;96393.41;;;6.47;100.00
596;BME280;19946;49.306;11.350;2022-12-26T18:26:19;96475.84;;;6.94;100.00
596;BME280;19946;49.306;11.350;2022-12-26T18:36:05;96438.31;;;6.79;100.00
596;BME280;19946;49.306;11.350;2022-12-26T18:39:16;96376.47;;;6.32;100.00
596;BME280;19946;49.306;11.350;2022-12-26T18:42:17;96399.28;;;6.49;100.00
596;BME280;19946;49.306;11.350;2022-12-26T18:45:19;96428.78;;;6.69;100.00
596;BME280;19946;49.306;11.350;2022-12-26T18:48:26;96403.81;;;6.45;100.00
596;BME280;19946;49.306;11.350;2022-12-26T18:51:27;96392.28;;;6.38;100.00
596;BME280;19946;49.306;11.350;2022-12-26T18:54:27;96477.75;;;6.80;100.00
596;BME280;19946;49.306;11.350;2022-12-26T18:57:27;96427.97;;;6.55;100.00
596;BME280;19946;49.306;11.350;2022-12-26T19:00:28;96454.78;;;6.77;100.00
596;BME280;19946;49.306;11.350;2022-12-26T19:03:28;96460.34;;;6.71;100.00
596;BME280;19946;49.306;11.350;2022-12-26T19:06:29;96465.56;;;6.82;100.00
596;BME280;19946;49.306;11.350;2022-12-26T19:09:32;96470.84;;;6.80;100.00
596;BME280;19946;49.306;11.350;2022-12-26T19:12:32;96452.22;;;6.77;100.00
596;BME280;19946;49.306;11.350;2022-12-26T19:15:33;96446.44;;;6.73;100.00
596;BME280;19946;49.306;11.350;2022-12-26T19:18:34;96458.38;;;6.74;100.00
596;BME280;19946;49.306;11.350;2022-12-26T19:21:35;96467.84;;;6.74;100.00
596;BME280;19946;49.306;11.350;2022-12-26T19:24:35;96433.94;;;6.56;100.00
596;BME280;19946;49.306;11.350;2022-12-26T19:27:35;96469.03;;;6.70;100.00
596;BME280;19946;49.306;11.350;2022-12-26T19:30:36;96453.25;;;6.62;100.00
596;BME280;19946;49.306;11.350;2022-12-26T19:33:36;96458.59;;;6.71;100.00
596;BME280;19946;49.306;11.350;2022-12-26T19:36:37;96437.44;;;6.55;100.00
596;BME280;19946;49.306;11.350;2022-12-26T19:39:37;96473.00;;;6.74;100.00
596;BME280;19946;49.306;11.350;2022-12-26T19:42:38;96448.94;;;6.49;100.00
596;BME280;19946;49.306;11.350;2022-12-26T19:45:38;96509.47;;;6.68;100.00
596;BME280;19946;49.306;11.350;2022-12-26T19:48:39;96555.25;;;6.63;100.00
596;BME280;19946;49.306;11.350;2022-12-26T19:51:40;96561.13;;;6.27;100.00
596;BME280;19946;49.306;11.350;2022-12-26T19:54:40;96569.31;;;6.19;100.00
596;BME280;19946;49.306;11.350;2022-12-26T19:57:42;96569.47;;;5.91;100.00
596;BME280;19946;49.306;11.350;2022-12-26T20:00:42;96587.09;;;5.82;100.00
596;BME280;19946;49.306;11.350;2022-12-26T20:03:43;96590.34;;;5.72;100.00
596;BME280;19946;49.306;11.350;2022-12-26T20:06:44;96562.72;;;5.34;100.00
596;BME280;19946;49.306;11.350;2022-12-26T20:09:44;96595.06;;;5.51;100.00
596;BME280;19946;49.306;11.350;2022-12-26T20:12:45;96601.97;;;5.36;100.00
596;BME280;19946;49.306;11.350;2022-12-26T20:15:45;96596.50;;;5.28;100.00
596;BME280;19946;49.306;11.350;2022-12-26T20:18:46;96576.13;;;5.11;100.00
596;BME280;19946;49.306;11.350;2022-12-26T20:21:48;96625.16;;;5.35;100.00
596;BME280;19946;49.306;11.350;2022-12-26T20:24:50;96625.56;;;5.29;100.00
596;BME280;19946;49.306;11.350;2022-12-26T20:27:50;96584.22;;;5.05;100.00
596;BME280;19946;49.306;11.350;2022-12-26T20:31:03;96623.59;;;5.32;100.00
596;BME280;19946;49.306;11.350;2022-12-26T20:34:05;96621.78;;;5.34;100.00
596;BME280;19946;49.306;11.350;2022-12-26T20:37:07;96603.72;;;5.22;100.00
596;BME280;19946;49.306;11.350;2022-12-26T20:40:09;96613.56;;;5.29;100.00
596;BME280;19946;49.306;11.350;2022-12-26T20:43:40;96617.13;;;5.27;100.00